createdAt,value
2023-04-12T00:02:03.492Z,100566.00
2023-04-12T00:04:34.730Z,100574.00
2023-04-12T00:07:06.237Z,100559.00
2023-04-12T00:09:39.517Z,100570.00
2023-04-12T00:12:10.346Z,100568.00
2023-04-12T00:14:40.308Z,100561.00
2023-04-12T00:17:10.261Z,100558.00
2023-04-12T00:19:42.028Z,100570.00
2023-04-12T00:22:12.420Z,100558.00
2023-04-12T00:24:47.475Z,100558.00
2023-04-12T00:27:17.441Z,100551.00
2023-04-12T00:29:47.417Z,100551.00
2023-04-12T00:32:17.380Z,100546.00
2023-04-12T00:34:47.333Z,100557.00
2023-04-12T00:37:17.407Z,100563.00
2023-04-12T00:39:50.097Z,100547.00
2023-04-12T00:42:20.094Z,100556.00
2023-04-12T00:44:50.071Z,100560.00
2023-04-12T00:47:20.147Z,100556.00
2023-04-12T00:49:50.148Z,100558.00
2023-04-12T00:52:20.313Z,100566.00
2023-04-12T00:54:53.830Z,100561.00
2023-04-12T00:57:23.919Z,100568.00
2023-04-12T00:59:54.196Z,100565.00
2023-04-12T01:02:24.343Z,100570.00
2023-04-12T01:04:54.381Z,100568.00
2023-04-12T01:07:37.884Z,100558.00
2023-04-12T01:10:18.606Z,100564.00
2023-04-12T01:13:01.756Z,100554.00
2023-04-12T01:15:35.919Z,100550.00
2023-04-12T01:18:11.782Z,100541.00
2023-04-12T01:20:48.550Z,100549.00
2023-04-12T01:23:34.242Z,100542.00
2023-04-12T01:26:22.062Z,100538.00
2023-04-12T01:28:57.220Z,100536.00
2023-04-12T01:31:28.827Z,100530.00
2023-04-12T01:34:02.206Z,100525.00
2023-04-12T01:36:33.097Z,100523.00
2023-04-12T01:39:04.717Z,100514.00
2023-04-12T01:41:36.103Z,100518.00
2023-04-12T01:44:08.658Z,100527.00
2023-04-12T01:46:39.645Z,100518.00
2023-04-12T01:49:09.774Z,100517.00
2023-04-12T01:51:51.712Z,100516.00
2023-04-12T01:54:25.769Z,100505.00
2023-04-12T01:57:02.046Z,100506.00
2023-04-12T01:59:42.125Z,100508.00
2023-04-12T02:02:13.613Z,100505.00
2023-04-12T02:04:46.015Z,100505.00
2023-04-12T02:07:18.886Z,100502.00
2023-04-12T02:09:49.040Z,100495.00
2023-04-12T02:12:19.023Z,100488.00
2023-04-12T02:14:52.100Z,100496.00
2023-04-12T02:17:22.757Z,100491.00
2023-04-12T02:19:52.723Z,100495.00
2023-04-12T02:22:22.671Z,100488.00
2023-04-12T02:24:52.656Z,100487.00
2023-04-12T02:27:22.612Z,100483.00
2023-04-12T02:29:56.071Z,100481.00
2023-04-12T02:32:26.128Z,100474.00
2023-04-12T02:34:57.874Z,100460.00
2023-04-12T02:37:29.797Z,100457.00
2023-04-12T02:40:02.645Z,100451.00
2023-04-12T02:42:32.655Z,100443.00
2023-04-12T02:45:05.235Z,100446.00
2023-04-12T02:47:35.164Z,100457.00
2023-04-12T02:50:05.174Z,100453.00
2023-04-12T02:52:35.870Z,100454.00
2023-04-12T02:55:06.182Z,100444.00
2023-04-12T02:57:36.125Z,100446.00
2023-04-12T03:00:12.414Z,100442.00
2023-04-12T03:02:42.587Z,100443.00
2023-04-12T03:05:14.890Z,100435.00
2023-04-12T03:07:46.297Z,100435.00
2023-04-12T03:10:16.347Z,100433.00
2023-04-12T03:12:46.324Z,100438.00
2023-04-12T03:15:19.271Z,100425.00
2023-04-12T03:17:49.418Z,100432.00
2023-04-12T03:20:20.545Z,100419.00
2023-04-12T03:22:50.693Z,100416.00
2023-04-12T03:25:21.059Z,100410.00
2023-04-12T03:27:51.318Z,100419.00
2023-04-12T03:30:24.233Z,100403.00
2023-04-12T03:32:54.301Z,100399.00
2023-04-12T03:35:24.347Z,100405.00
2023-04-12T03:37:54.495Z,100393.00
2023-04-12T03:40:24.690Z,100395.00
2023-04-12T03:42:54.812Z,100398.00
2023-04-12T03:45:27.864Z,100404.00
2023-04-12T03:47:58.015Z,100386.00
2023-04-12T03:50:29.755Z,100386.00
2023-04-12T03:52:59.748Z,100383.00
2023-04-12T03:55:29.759Z,100385.00
2023-04-12T03:57:59.697Z,100385.00
2023-04-12T04:00:34.537Z,100376.00
2023-04-12T04:03:05.813Z,100378.00
2023-04-12T04:05:35.965Z,100375.00
2023-04-12T04:08:07.329Z,100371.00
2023-04-12T04:10:37.457Z,100378.00
2023-04-12T04:13:07.375Z,100362.00
2023-04-12T04:15:40.023Z,100362.00
2023-04-12T04:18:10.009Z,100364.00
2023-04-12T04:20:40.305Z,100365.00
2023-04-12T04:23:10.432Z,100366.00
2023-04-12T04:25:40.396Z,100366.00
2023-04-12T04:28:10.543Z,100366.00
2023-04-12T04:30:46.283Z,100366.00
2023-04-12T04:33:16.671Z,100360.00
2023-04-12T04:35:46.933Z,100360.00
2023-04-12T04:38:17.130Z,100361.00
2023-04-12T04:40:48.057Z,100363.00
2023-04-12T04:43:18.961Z,100364.00
2023-04-12T04:45:54.862Z,100367.00
2023-04-12T04:48:24.918Z,100364.00
2023-04-12T04:50:55.324Z,100354.00
2023-04-12T04:53:26.006Z,100360.00
2023-04-12T04:56:01.250Z,100347.00
2023-04-12T04:58:31.362Z,100355.00
2023-04-12T05:01:03.985Z,100348.00
2023-04-12T05:03:34.639Z,100351.00
2023-04-12T05:06:05.143Z,100349.00
2023-04-12T05:08:35.160Z,100349.00
2023-04-12T05:11:05.148Z,100345.00
2023-04-12T05:13:35.146Z,100355.00
2023-04-12T05:16:11.528Z,100360.00
2023-04-12T05:18:41.831Z,100357.00
2023-04-12T05:21:11.818Z,100355.00
2023-04-12T05:23:47.026Z,100354.00
2023-04-12T05:26:17.070Z,100358.00
2023-04-12T05:28:47.187Z,100353.00
2023-04-12T05:31:19.910Z,100351.00
2023-04-12T05:33:49.906Z,100356.00
2023-04-12T05:36:19.986Z,100347.00
2023-04-12T05:38:50.016Z,100350.00
2023-04-12T05:41:19.954Z,100344.00
2023-04-12T05:43:50.167Z,100337.00
2023-04-12T05:46:22.800Z,100340.00
2023-04-12T05:48:52.819Z,100338.00
2023-04-12T05:51:34.110Z,100337.00
2023-04-12T05:54:10.912Z,100324.00
2023-04-12T05:56:41.127Z,100333.00
2023-04-12T05:59:11.876Z,100325.00
2023-04-12T06:01:45.069Z,100318.00
2023-04-12T06:04:15.361Z,100313.00
2023-04-12T06:06:47.634Z,100313.00
2023-04-12T06:09:17.639Z,100298.00
2023-04-12T06:11:47.666Z,100293.00
2023-04-12T06:14:17.680Z,100296.00
2023-04-12T06:16:50.251Z,100286.00
2023-04-12T06:19:20.308Z,100288.00
2023-04-12T06:21:50.583Z,100283.00
2023-04-12T06:24:20.889Z,100283.00
2023-04-12T06:26:50.883Z,100278.00
2023-04-12T06:29:21.042Z,100265.00
2023-04-12T06:31:53.824Z,100261.00
2023-04-12T06:34:23.900Z,100266.00
2023-04-12T06:36:53.892Z,100246.00
2023-04-12T06:39:23.894Z,100250.00
2023-04-12T06:41:53.945Z,100252.00
2023-04-12T06:44:23.925Z,100256.00
2023-04-12T06:46:56.715Z,100248.00
2023-04-12T06:49:26.728Z,100250.00
2023-04-12T06:51:56.764Z,100245.00
2023-04-12T06:54:26.906Z,100247.00
2023-04-12T06:56:57.558Z,100249.00
2023-04-12T06:59:27.665Z,100245.00
2023-04-12T07:02:00.304Z,100240.00
2023-04-12T07:04:33.156Z,100239.00
2023-04-12T07:07:03.242Z,100226.00
2023-04-12T07:09:35.340Z,100235.00
2023-04-12T07:12:05.370Z,100230.00
2023-04-12T07:14:35.374Z,100229.00
2023-04-12T07:17:08.053Z,100224.00
2023-04-12T07:19:39.695Z,100226.00
2023-04-12T07:22:10.864Z,100221.00
2023-04-12T07:24:42.414Z,100217.00
2023-04-12T07:27:12.495Z,100212.00
2023-04-12T07:29:42.547Z,100213.00
2023-04-12T07:32:15.145Z,100208.00
2023-04-12T07:34:45.150Z,100204.00
2023-04-12T07:37:15.226Z,100198.00
2023-04-12T07:39:45.758Z,100198.00
2023-04-12T07:42:15.783Z,100209.00
2023-04-12T07:44:45.733Z,100202.00
2023-04-12T07:47:18.302Z,100199.00
2023-04-12T07:49:48.384Z,100186.00
2023-04-12T07:52:18.573Z,100178.00
2023-04-12T07:54:48.611Z,100180.00
2023-04-12T07:57:18.770Z,100171.00
2023-04-12T07:59:48.806Z,100169.00
2023-04-12T08:02:25.226Z,100171.00
2023-04-12T08:04:55.742Z,100162.00
2023-04-12T08:07:27.213Z,100166.00
2023-04-12T08:09:57.258Z,100167.00
2023-04-12T08:12:27.404Z,100167.00
2023-04-12T08:14:57.368Z,100149.00
2023-04-12T08:17:29.922Z,100148.00
2023-04-12T08:19:59.966Z,100152.00
2023-04-12T08:22:31.123Z,100146.00
2023-04-12T08:25:01.299Z,100147.00
2023-04-12T08:27:32.967Z,100134.00
2023-04-12T08:30:03.552Z,100135.00
2023-04-12T08:32:37.732Z,100121.00
2023-04-12T08:35:08.435Z,100132.00
2023-04-12T08:37:39.028Z,100131.00
2023-04-12T08:40:11.563Z,100125.00
2023-04-12T08:42:41.864Z,100113.00
2023-04-12T08:45:14.789Z,100115.00
2023-04-12T08:47:48.094Z,100101.00
2023-04-12T08:50:18.309Z,100103.00
2023-04-12T08:52:50.378Z,100100.00
2023-04-12T08:55:20.582Z,100095.00
2023-04-12T08:57:51.822Z,100101.00
2023-04-12T09:00:23.783Z,100091.00
2023-04-12T09:02:56.560Z,100086.00
2023-04-12T09:05:32.661Z,100080.00
2023-04-12T09:08:02.680Z,100085.00
2023-04-12T09:10:38.055Z,100069.00
2023-04-12T09:13:08.968Z,100076.00
2023-04-12T09:15:39.511Z,100066.00
2023-04-12T09:18:17.113Z,100070.00
2023-04-12T09:20:47.432Z,100057.00
2023-04-12T09:23:22.560Z,100056.00
2023-04-12T09:25:53.700Z,100048.00
2023-04-12T09:28:27.489Z,100053.00
2023-04-12T09:30:59.315Z,100050.00
2023-04-12T09:33:40.819Z,100043.00
2023-04-12T09:36:14.603Z,100037.00
2023-04-12T09:39:01.577Z,100034.00
2023-04-12T09:41:32.214Z,100014.00
2023-04-12T09:44:02.684Z,100021.00
2023-04-12T09:46:32.863Z,100018.00
2023-04-12T09:49:05.820Z,100011.00
2023-04-12T09:51:37.557Z,100006.00
2023-04-12T09:54:09.740Z,100012.00
2023-04-12T09:56:42.373Z,100003.00
2023-04-12T09:59:12.493Z,100005.00
2023-04-12T10:01:43.935Z,99991.00
2023-04-12T10:04:17.224Z,99995.00
2023-04-12T10:06:47.736Z,99995.00
2023-04-12T10:09:18.005Z,99976.00
2023-04-12T10:11:48.739Z,99974.00
2023-04-12T10:14:21.608Z,99971.00
2023-04-12T10:16:56.154Z,99958.00
2023-04-12T10:19:31.366Z,99965.00
2023-04-12T10:22:02.369Z,99954.00
2023-04-12T10:24:33.000Z,99953.00
2023-04-12T10:27:04.728Z,99950.00
2023-04-12T10:29:38.712Z,99939.00
2023-04-12T10:32:25.110Z,99930.00
2023-04-12T10:35:00.919Z,99932.00
2023-04-12T10:38:01.838Z,99926.00
2023-04-12T10:40:32.481Z,99910.00
2023-04-12T10:43:27.681Z,99910.00
2023-04-12T10:45:59.202Z,99911.00
2023-04-12T10:48:36.602Z,99900.00
2023-04-12T10:51:26.891Z,99894.00
2023-04-12T10:54:17.855Z,99899.00
2023-04-12T10:56:49.391Z,99887.00
2023-04-12T10:59:19.942Z,99894.00
2023-04-12T11:02:16.024Z,99883.00
2023-04-12T11:05:11.654Z,99879.00
2023-04-12T11:07:47.227Z,99868.00
2023-04-12T11:10:20.252Z,99861.00
2023-04-12T11:12:52.746Z,99869.00
2023-04-12T11:15:23.906Z,99861.00
2023-04-12T11:17:58.010Z,99850.00
2023-04-12T11:20:30.155Z,99844.00
2023-04-12T11:23:03.898Z,99847.00
2023-04-12T11:25:35.081Z,99852.00
2023-04-12T11:28:13.865Z,99836.00
2023-04-12T11:30:54.927Z,99838.00
2023-04-12T11:33:38.298Z,99829.00
2023-04-12T11:36:10.434Z,99829.00
2023-04-12T11:38:46.307Z,99826.00
2023-04-12T11:41:18.758Z,99821.00
2023-04-12T11:43:49.044Z,99820.00
2023-04-12T11:46:19.170Z,99810.00
2023-04-12T11:48:49.645Z,99826.00
2023-04-12T11:51:25.358Z,99819.00
2023-04-12T11:54:01.126Z,99813.00
2023-04-12T11:56:32.679Z,99799.00
2023-04-12T11:59:02.775Z,99798.00
2023-04-12T12:01:34.138Z,99790.00
2023-04-12T12:04:05.538Z,99781.00
2023-04-12T12:06:36.493Z,99789.00
2023-04-12T12:09:09.684Z,99771.00
2023-04-12T12:11:39.781Z,99775.00
2023-04-12T12:14:09.824Z,99760.00
2023-04-12T12:16:41.890Z,99761.00
2023-04-12T12:19:11.963Z,99771.00
2023-04-12T12:21:42.173Z,99763.00
2023-04-12T12:24:16.852Z,99752.00
2023-04-12T12:26:46.790Z,99739.00
2023-04-12T12:29:23.662Z,99744.00
2023-04-12T12:31:54.106Z,99731.00
2023-04-12T12:34:24.135Z,99728.00
2023-04-12T12:36:58.654Z,99717.00
2023-04-12T12:39:31.059Z,99711.00
2023-04-12T12:42:03.018Z,99706.00
2023-04-12T12:44:35.502Z,99704.00
2023-04-12T12:47:13.980Z,99702.00
2023-04-12T12:49:45.014Z,99687.00
2023-04-12T12:52:17.308Z,99683.00
2023-04-12T12:54:50.624Z,99684.00
2023-04-12T12:57:20.731Z,99676.00
2023-04-12T12:59:50.818Z,99678.00
2023-04-12T13:02:21.152Z,99672.00
2023-04-12T13:04:51.596Z,99686.00
2023-04-12T13:07:21.797Z,99676.00
2023-04-12T13:09:54.715Z,99674.00
2023-04-12T13:12:24.905Z,99667.00
2023-04-12T13:15:00.313Z,99666.00
2023-04-12T13:17:43.387Z,99666.00
2023-04-12T13:20:13.893Z,99661.00
2023-04-12T13:22:44.038Z,99660.00
2023-04-12T13:25:16.967Z,99649.00
2023-04-12T13:27:47.035Z,99651.00
2023-04-12T13:30:17.336Z,99642.00
2023-04-12T13:32:47.583Z,99629.00
2023-04-12T13:35:17.716Z,99629.00
2023-04-12T13:37:47.937Z,99619.00
2023-04-12T13:40:20.731Z,99622.00
2023-04-12T13:42:50.847Z,99623.00
2023-04-12T13:45:21.018Z,99618.00
2023-04-12T13:47:51.241Z,99618.00
2023-04-12T13:50:21.788Z,99601.00
2023-04-12T13:52:51.894Z,99600.00
2023-04-12T13:55:24.876Z,99600.00
2023-04-12T13:57:55.012Z,99598.00
2023-04-12T14:00:26.002Z,99596.00
2023-04-12T14:02:56.211Z,99583.00
2023-04-12T14:05:26.260Z,99590.00
2023-04-12T14:07:56.518Z,99581.00
2023-04-12T14:10:29.235Z,99572.00
2023-04-12T14:12:59.531Z,99582.00
2023-04-12T14:15:29.645Z,99577.00
2023-04-12T14:18:00.114Z,99574.00
2023-04-12T14:20:30.646Z,99569.00
2023-04-12T14:23:01.204Z,99576.00
2023-04-12T14:25:35.550Z,99564.00
2023-04-12T14:28:05.549Z,99560.00
2023-04-12T14:30:35.933Z,99555.00
2023-04-12T14:33:06.360Z,99570.00
2023-04-12T14:35:36.850Z,99561.00
2023-04-12T14:38:07.483Z,99565.00
2023-04-12T14:40:40.298Z,99561.00
2023-04-12T14:43:10.878Z,99570.00
2023-04-12T14:45:41.273Z,99568.00
2023-04-12T14:48:11.479Z,99566.00
2023-04-12T14:50:41.920Z,99557.00
2023-04-12T14:53:14.391Z,99561.00
2023-04-12T14:55:48.902Z,99549.00
2023-04-12T14:58:19.080Z,99548.00
2023-04-12T15:00:49.895Z,99546.00
2023-04-12T15:03:21.331Z,99550.00
2023-04-12T15:05:52.001Z,99543.00
2023-04-12T15:08:29.373Z,99553.00
2023-04-12T15:11:02.903Z,99552.00
2023-04-12T15:13:35.135Z,99549.00
2023-04-12T15:16:06.810Z,99549.00
2023-04-12T15:18:39.830Z,99553.00
2023-04-12T15:21:12.253Z,99555.00
2023-04-12T15:23:45.133Z,99557.00
2023-04-12T15:26:18.376Z,99555.00
2023-04-12T15:28:48.776Z,99557.00
2023-04-12T15:31:19.074Z,99567.00
2023-04-12T15:33:50.703Z,99556.00
2023-04-12T15:36:22.332Z,99564.00
2023-04-12T15:38:52.519Z,99557.00
2023-04-12T15:41:25.327Z,99566.00
2023-04-12T15:43:55.764Z,99555.00
2023-04-12T15:46:26.772Z,99563.00
2023-04-12T15:48:57.833Z,99566.00
2023-04-12T15:51:28.287Z,99564.00
2023-04-12T15:53:59.078Z,99561.00
2023-04-12T15:56:32.700Z,99563.00
2023-04-12T15:59:03.760Z,99567.00
2023-04-12T16:01:35.888Z,99561.00
2023-04-12T16:04:07.371Z,99564.00
2023-04-12T16:06:38.419Z,99566.00
2023-04-12T16:09:09.128Z,99575.00
2023-04-12T16:11:43.882Z,99565.00
2023-04-12T16:14:14.809Z,99563.00
2023-04-12T16:16:45.171Z,99549.00
2023-04-12T16:19:15.396Z,99551.00
2023-04-12T16:21:46.186Z,99552.00
2023-04-12T16:24:16.456Z,99548.00
2023-04-12T16:26:49.281Z,99544.00
2023-04-12T16:29:19.703Z,99546.00
2023-04-12T16:31:51.852Z,99546.00
2023-04-12T16:34:22.803Z,99535.00
2023-04-12T16:36:54.348Z,99538.00
2023-04-12T16:39:24.568Z,99534.00
2023-04-12T16:41:57.678Z,99539.00
2023-04-12T16:44:28.136Z,99527.00
2023-04-12T16:46:58.554Z,99538.00
2023-04-12T16:49:28.844Z,99536.00
2023-04-12T16:51:59.531Z,99531.00
2023-04-12T16:54:30.122Z,99533.00
2023-04-12T16:57:03.204Z,99535.00
2023-04-12T16:59:35.412Z,99529.00
2023-04-12T17:02:05.921Z,99533.00
2023-04-12T17:04:36.531Z,99521.00
2023-04-12T17:07:07.082Z,99519.00
2023-04-12T17:09:37.306Z,99512.00
2023-04-12T17:12:10.686Z,99508.00
2023-04-12T17:14:40.852Z,99510.00
2023-04-12T17:17:11.231Z,99512.00
2023-04-12T17:19:41.490Z,99508.00
2023-04-12T17:22:11.964Z,99515.00
2023-04-12T17:24:42.607Z,99516.00
2023-04-12T17:27:15.218Z,99506.00
2023-04-12T17:29:45.656Z,99500.00
2023-04-12T17:32:16.269Z,99508.00
2023-04-12T17:34:46.565Z,99514.00
2023-04-12T17:37:17.060Z,99516.00
2023-04-12T17:39:47.242Z,99513.00
2023-04-12T17:42:21.843Z,99511.00
2023-04-12T17:44:52.291Z,99508.00
2023-04-12T17:47:23.328Z,99506.00
2023-04-12T17:49:53.793Z,99503.00
2023-04-12T17:52:24.064Z,99516.00
2023-04-12T17:54:54.320Z,99491.00
2023-04-12T17:57:27.801Z,99493.00
2023-04-12T17:59:58.646Z,99486.00
2023-04-12T18:02:29.179Z,99484.00
2023-04-12T18:04:59.622Z,99474.00
2023-04-12T18:07:30.783Z,99469.00
2023-04-12T18:10:02.445Z,99459.00
2023-04-12T18:12:35.217Z,99470.00
2023-04-12T18:15:06.359Z,99476.00
2023-04-12T18:17:36.664Z,99474.00
2023-04-12T18:20:10.712Z,99482.00
2023-04-12T18:22:42.883Z,99478.00
2023-04-12T18:25:14.562Z,99487.00
2023-04-12T18:27:50.180Z,99491.00
2023-04-12T18:30:20.512Z,99487.00
2023-04-12T18:32:50.808Z,99494.00
2023-04-12T18:35:21.419Z,99490.00
2023-04-12T18:37:51.630Z,99498.00
2023-04-12T18:40:23.461Z,99492.00
2023-04-12T18:42:56.224Z,99496.00
2023-04-12T18:45:26.689Z,99501.00
2023-04-12T18:47:57.206Z,99503.00
2023-04-12T18:50:27.733Z,99493.00
2023-04-12T18:52:58.015Z,99491.00
2023-04-12T18:55:28.247Z,99490.00
2023-04-12T18:58:01.000Z,99497.00
2023-04-12T19:00:31.935Z,99493.00
2023-04-12T19:03:02.673Z,99493.00
2023-04-12T19:05:33.091Z,99488.00
2023-04-12T19:08:03.694Z,99482.00
2023-04-12T19:10:34.449Z,99479.00
2023-04-12T19:13:07.517Z,99481.00
2023-04-12T19:15:37.799Z,99483.00
2023-04-12T19:18:08.265Z,99483.00
2023-04-12T19:20:38.528Z,99476.00
2023-04-12T19:23:10.892Z,99471.00
2023-04-12T19:25:41.275Z,99475.00
2023-04-12T19:28:14.003Z,99480.00
2023-04-12T19:30:44.026Z,99470.00
2023-04-12T19:33:14.108Z,99470.00
2023-04-12T19:35:44.304Z,99466.00
2023-04-12T19:38:15.723Z,99464.00
2023-04-12T19:40:45.928Z,99446.00
2023-04-12T19:43:18.823Z,99456.00
2023-04-12T19:45:49.062Z,99449.00
2023-04-12T19:48:19.974Z,99440.00
2023-04-12T19:50:50.788Z,99446.00
2023-04-12T19:53:21.737Z,99439.00
2023-04-12T19:55:52.607Z,99443.00
2023-04-12T19:58:25.356Z,99435.00
2023-04-12T20:00:55.980Z,99436.00
2023-04-12T20:03:26.072Z,99438.00
2023-04-12T20:05:58.244Z,99441.00
2023-04-12T20:08:28.582Z,99445.00
2023-04-12T20:10:58.808Z,99449.00
2023-04-12T20:13:31.566Z,99448.00
2023-04-12T20:16:04.607Z,99439.00
2023-04-12T20:18:34.762Z,99434.00
2023-04-12T20:21:06.189Z,99426.00
2023-04-12T20:23:36.435Z,99443.00
2023-04-12T20:26:07.565Z,99422.00
2023-04-12T20:28:40.400Z,99420.00
2023-04-12T20:31:10.717Z,99420.00
2023-04-12T20:33:41.376Z,99420.00
2023-04-12T20:36:13.464Z,99424.00
2023-04-12T20:38:43.636Z,99414.00
2023-04-12T20:41:13.747Z,99412.00
2023-04-12T20:43:51.107Z,99402.00
2023-04-12T20:46:25.943Z,99382.00
2023-04-12T20:48:58.425Z,99371.00
2023-04-12T20:51:29.627Z,99365.00
2023-04-12T20:54:02.271Z,99372.00
2023-04-12T20:56:32.794Z,99371.00
2023-04-12T20:59:05.562Z,99378.00
2023-04-12T21:01:35.838Z,99389.00
2023-04-12T21:04:06.852Z,99387.00
2023-04-12T21:06:37.787Z,99386.00
2023-04-12T21:09:10.238Z,99372.00
2023-04-12T21:11:41.526Z,99367.00
2023-04-12T21:14:14.529Z,99369.00
2023-04-12T21:16:45.728Z,99368.00
2023-04-12T21:19:15.818Z,99365.00
2023-04-12T21:21:46.101Z,99364.00
2023-04-12T21:24:16.288Z,99371.00
2023-04-12T21:26:46.338Z,99370.00
2023-04-12T21:29:19.851Z,99362.00
2023-04-12T21:31:49.901Z,99362.00
2023-04-12T21:34:21.865Z,99362.00
2023-04-12T21:36:53.693Z,99377.00
2023-04-12T21:39:23.922Z,99362.00
2023-04-12T21:41:53.969Z,99366.00
2023-04-12T21:44:26.832Z,99362.00
2023-04-12T21:46:56.919Z,99367.00
2023-04-12T21:49:27.210Z,99377.00
2023-04-12T21:51:59.437Z,99368.00
2023-04-12T21:54:31.617Z,99374.00
2023-04-12T21:57:02.339Z,99366.00
2023-04-12T21:59:35.083Z,99355.00
2023-04-12T22:02:05.293Z,99355.00
2023-04-12T22:04:35.452Z,99363.00
2023-04-12T22:07:06.900Z,99352.00
2023-04-12T22:09:36.938Z,99356.00
2023-04-12T22:12:07.447Z,99342.00
2023-04-12T22:14:40.568Z,99346.00
2023-04-12T22:17:10.786Z,99348.00
2023-04-12T22:19:40.951Z,99345.00
2023-04-12T22:22:11.235Z,99345.00
2023-04-12T22:24:41.667Z,99349.00
2023-04-12T22:27:11.825Z,99348.00
2023-04-12T22:29:44.729Z,99347.00
2023-04-12T22:32:14.780Z,99357.00
2023-04-12T22:34:45.815Z,99359.00
2023-04-12T22:37:16.998Z,99364.00
2023-04-12T22:39:51.528Z,99357.00
2023-04-12T22:42:26.625Z,99361.00
2023-04-12T22:45:00.781Z,99368.00
2023-04-12T22:47:31.660Z,99370.00
2023-04-12T22:50:02.047Z,99371.00
2023-04-12T22:52:33.716Z,99375.00
2023-04-12T22:55:03.846Z,99368.00
2023-04-12T22:57:35.214Z,99349.00
2023-04-12T23:00:16.596Z,99348.00
2023-04-12T23:02:48.953Z,99352.00
2023-04-12T23:05:20.057Z,99346.00
2023-04-12T23:07:50.195Z,99351.00
2023-04-12T23:10:20.836Z,99347.00
2023-04-12T23:12:53.682Z,99349.00
2023-04-12T23:15:26.502Z,99342.00
2023-04-12T23:17:56.951Z,99346.00
2023-04-12T23:20:27.300Z,99343.00
2023-04-12T23:22:58.435Z,99338.00
2023-04-12T23:25:41.436Z,99343.00
2023-04-12T23:28:14.700Z,99348.00
2023-04-12T23:30:52.766Z,99332.00
2023-04-12T23:33:25.485Z,99342.00
2023-04-12T23:35:56.244Z,99347.00
2023-04-12T23:38:32.472Z,99352.00
2023-04-12T23:41:04.380Z,99347.00
2023-04-12T23:43:37.141Z,99339.00
2023-04-12T23:46:10.370Z,99341.00
2023-04-12T23:48:40.736Z,99345.00
2023-04-12T23:51:11.245Z,99343.00
2023-04-12T23:53:41.318Z,99337.00
2023-04-12T23:56:13.176Z,99351.00
2023-04-12T23:58:43.173Z,99351.00
